Aviation Digital Data Service (ADDS)

Output produced by METARs form (0527 UTC 21 January 2019)
found at http://www.aviationweather.gov/metar/data/
 
METAR text: DAOO 210500Z 26008KT 9999 FEW020 SCT026 09/08 Q1016
Conditions at: DAOO (ORAN/ES SENIA , DZ) observed 0500 UTC 21 January 2019
Temperature: 9.0°C (48°F)
Dewpoint: 8.0°C (46°F) [RH = 93%]
Pressure (altimeter): 30.00 inches Hg (1016.0 mb)
Winds: from the W (260 degrees) at 9 MPH (8 knots; 4.1 m/s)
Visibility: 6 or more miles (10+ km)
Ceiling: at least 12,000 feet AGL
Clouds: few clouds at 2000 feet AGL
scattered clouds at 2600 feet AGL
Weather: no significant weather observed at this time

METAR text: DAOO 210430Z 24008KT 9999 -RA FEW020 SCT026 08/07 Q1016
Conditions at: DAOO (ORAN/ES SENIA , DZ) observed 0430 UTC 21 January 2019
Temperature: 8.0°C (46°F)
Dewpoint: 7.0°C (45°F) [RH = 93%]
Pressure (altimeter): 30.00 inches Hg (1016.0 mb)
Winds: from the WSW (240 degrees) at 9 MPH (8 knots; 4.1 m/s)
Visibility: 6 or more miles (10+ km)
Ceiling: at least 12,000 feet AGL
Clouds: few clouds at 2000 feet AGL
scattered clouds at 2600 feet AGL
Weather: -RA  (light rain)

METAR text: DAOO 210400Z 24010KT 9999 -RA FEW020 SCT026 08/07 Q1016
Conditions at: DAOO (ORAN/ES SENIA , DZ) observed 0400 UTC 21 January 2019
Temperature: 8.0°C (46°F)
Dewpoint: 7.0°C (45°F) [RH = 93%]
Pressure (altimeter): 30.00 inches Hg (1016.0 mb)
Winds: from the WSW (240 degrees) at 12 MPH (10 knots; 5.1 m/s)
Visibility: 6 or more miles (10+ km)
Ceiling: at least 12,000 feet AGL
Clouds: few clouds at 2000 feet AGL
scattered clouds at 2600 feet AGL
Weather: -RA  (light rain)

METAR text: DAOO 210330Z 24010KT 9999 -RA FEW020 SCT026 08/07 Q1016
Conditions at: DAOO (ORAN/ES SENIA , DZ) observed 0330 UTC 21 January 2019
Temperature: 8.0°C (46°F)
Dewpoint: 7.0°C (45°F) [RH = 93%]
Pressure (altimeter): 30.00 inches Hg (1016.0 mb)
Winds: from the WSW (240 degrees) at 12 MPH (10 knots; 5.1 m/s)
Visibility: 6 or more miles (10+ km)
Ceiling: at least 12,000 feet AGL
Clouds: few clouds at 2000 feet AGL
scattered clouds at 2600 feet AGL
Weather: -RA  (light rain)

METAR text: DAOO 210300Z 24010KT 9999 -RA FEW020 SCT026 09/08 Q1017
Conditions at: DAOO (ORAN/ES SENIA , DZ) observed 0300 UTC 21 January 2019
Temperature: 9.0°C (48°F)
Dewpoint: 8.0°C (46°F) [RH = 93%]
Pressure (altimeter): 30.03 inches Hg (1017.0 mb)
Winds: from the WSW (240 degrees) at 12 MPH (10 knots; 5.1 m/s)
Visibility: 6 or more miles (10+ km)
Ceiling: at least 12,000 feet AGL
Clouds: few clouds at 2000 feet AGL
scattered clouds at 2600 feet AGL
Weather: -RA  (light rain)

METAR text: DAOO 210230Z 22006KT 9999 -RA FEW020 SCT026 09/08 Q1017
Conditions at: DAOO (ORAN/ES SENIA , DZ) observed 0230 UTC 21 January 2019
Temperature: 9.0°C (48°F)
Dewpoint: 8.0°C (46°F) [RH = 93%]
Pressure (altimeter): 30.03 inches Hg (1017.0 mb)
Winds: from the SW (220 degrees) at 7 MPH (6 knots; 3.1 m/s)
Visibility: 6 or more miles (10+ km)
Ceiling: at least 12,000 feet AGL
Clouds: few clouds at 2000 feet AGL
scattered clouds at 2600 feet AGL
Weather: -RA  (light rain)

METAR text: DAOO 210200Z 22006KT 9999 -RA FEW020 SCT026 09/08 Q1016
Conditions at: DAOO (ORAN/ES SENIA , DZ) observed 0200 UTC 21 January 2019
Temperature: 9.0°C (48°F)
Dewpoint: 8.0°C (46°F) [RH = 93%]
Pressure (altimeter): 30.00 inches Hg (1016.0 mb)
Winds: from the SW (220 degrees) at 7 MPH (6 knots; 3.1 m/s)
Visibility: 6 or more miles (10+ km)
Ceiling: at least 12,000 feet AGL
Clouds: few clouds at 2000 feet AGL
scattered clouds at 2600 feet AGL
Weather: -RA  (light rain)

METAR text: DAOO 210130Z 24010KT 9999 -RA FEW020 SCT026 10/09 Q1017
Conditions at: DAOO (ORAN/ES SENIA , DZ) observed 0130 UTC 21 January 2019
Temperature: 10.0°C (50°F)
Dewpoint: 9.0°C (48°F) [RH = 93%]
Pressure (altimeter): 30.03 inches Hg (1017.0 mb)
Winds: from the WSW (240 degrees) at 12 MPH (10 knots; 5.1 m/s)
Visibility: 6 or more miles (10+ km)
Ceiling: at least 12,000 feet AGL
Clouds: few clouds at 2000 feet AGL
scattered clouds at 2600 feet AGL
Weather: -RA  (light rain)

METAR text: DAOO 210100Z 24012KT 9999 -RA FEW020 SCT026 10/09 Q1016
Conditions at: DAOO (ORAN/ES SENIA , DZ) observed 0100 UTC 21 January 2019
Temperature: 10.0°C (50°F)
Dewpoint: 9.0°C (48°F) [RH = 93%]
Pressure (altimeter): 30.00 inches Hg (1016.0 mb)
Winds: from the WSW (240 degrees) at 14 MPH (12 knots; 6.2 m/s)
Visibility: 6 or more miles (10+ km)
Ceiling: at least 12,000 feet AGL
Clouds: few clouds at 2000 feet AGL
scattered clouds at 2600 feet AGL
Weather: -RA  (light rain)

METAR text: DAOO 210030Z 24006KT 9999 -RA FEW020 SCT026 10/09 Q1016
Conditions at: DAOO (ORAN/ES SENIA , DZ) observed 0030 UTC 21 January 2019
Temperature: 10.0°C (50°F)
Dewpoint: 9.0°C (48°F) [RH = 93%]
Pressure (altimeter): 30.00 inches Hg (1016.0 mb)
Winds: from the WSW (240 degrees) at 7 MPH (6 knots; 3.1 m/s)
Visibility: 6 or more miles (10+ km)
Ceiling: at least 12,000 feet AGL
Clouds: few clouds at 2000 feet AGL
scattered clouds at 2600 feet AGL
Weather: -RA  (light rain)

METAR text: DAOO 210000Z 24006KT 9999 -RA FEW020 SCT026 10/09 Q1016
Conditions at: DAOO (ORAN/ES SENIA , DZ) observed 0000 UTC 21 January 2019
Temperature: 10.0°C (50°F)
Dewpoint: 9.0°C (48°F) [RH = 93%]
Pressure (altimeter): 30.00 inches Hg (1016.0 mb)
Winds: from the WSW (240 degrees) at 7 MPH (6 knots; 3.1 m/s)
Visibility: 6 or more miles (10+ km)
Ceiling: at least 12,000 feet AGL
Clouds: few clouds at 2000 feet AGL
scattered clouds at 2600 feet AGL
Weather: -RA  (light rain)

METAR text: DAOO 202330Z 24004KT 9999 -RA FEW020 SCT026 11/10 Q1016
Conditions at: DAOO (ORAN/ES SENIA , DZ) observed 2330 UTC 20 January 2019
Temperature: 11.0°C (52°F)
Dewpoint: 10.0°C (50°F) [RH = 94%]
Pressure (altimeter): 30.00 inches Hg (1016.0 mb)
Winds: from the WSW (240 degrees) at 5 MPH (4 knots; 2.1 m/s)
Visibility: 6 or more miles (10+ km)
Ceiling: at least 12,000 feet AGL
Clouds: few clouds at 2000 feet AGL
scattered clouds at 2600 feet AGL
Weather: -RA  (light rain)

METAR text: DAOO 202300Z 22008KT 9999 FEW020 SCT026 11/10 Q1016
Conditions at: DAOO (ORAN/ES SENIA , DZ) observed 2300 UTC 20 January 2019
Temperature: 11.0°C (52°F)
Dewpoint: 10.0°C (50°F) [RH = 94%]
Pressure (altimeter): 30.00 inches Hg (1016.0 mb)
Winds: from the SW (220 degrees) at 9 MPH (8 knots; 4.1 m/s)
Visibility: 6 or more miles (10+ km)
Ceiling: at least 12,000 feet AGL
Clouds: few clouds at 2000 feet AGL
scattered clouds at 2600 feet AGL
Weather: no significant weather observed at this time

METAR text: DAOO 202230Z 20006KT 9999 SCT020 SCT026 12/11 Q1015
Conditions at: DAOO (ORAN/ES SENIA , DZ) observed 2230 UTC 20 January 2019
Temperature: 12.0°C (54°F)
Dewpoint: 11.0°C (52°F) [RH = 94%]
Pressure (altimeter): 29.97 inches Hg (1015.0 mb)
Winds: from the SSW (200 degrees) at 7 MPH (6 knots; 3.1 m/s)
Visibility: 6 or more miles (10+ km)
Ceiling: at least 12,000 feet AGL
Clouds: scattered clouds at 2000 feet AGL
scattered clouds at 2600 feet AGL
Weather: no significant weather observed at this time

METAR text: DAOO 202200Z 04003KT 9999 SCT020 SCT026 12/11 Q1015
Conditions at: DAOO (ORAN/ES SENIA , DZ) observed 2200 UTC 20 January 2019
Temperature: 12.0°C (54°F)
Dewpoint: 11.0°C (52°F) [RH = 94%]
Pressure (altimeter): 29.97 inches Hg (1015.0 mb)
Winds: from the NE (40 degrees) at 3 MPH (3 knots; 1.5 m/s)
Visibility: 6 or more miles (10+ km)
Ceiling: at least 12,000 feet AGL
Clouds: scattered clouds at 2000 feet AGL
scattered clouds at 2600 feet AGL
Weather: no significant weather observed at this time

METAR text: DAOO 202130Z 01006KT 9999 SCT020 SCT026 08/07 Q1014
Conditions at: DAOO (ORAN/ES SENIA , DZ) observed 2130 UTC 20 January 2019
Temperature: 8.0°C (46°F)
Dewpoint: 7.0°C (45°F) [RH = 93%]
Pressure (altimeter): 29.94 inches Hg (1014.0 mb)
Winds: from the N (10 degrees) at 7 MPH (6 knots; 3.1 m/s)
Visibility: 6 or more miles (10+ km)
Ceiling: at least 12,000 feet AGL
Clouds: scattered clouds at 2000 feet AGL
scattered clouds at 2600 feet AGL
Weather: no significant weather observed at this time

METAR text: DAOO 202100Z 04003KT 9999 SCT020 SCT026 08/06 Q1014
Conditions at: DAOO (ORAN/ES SENIA , DZ) observed 2100 UTC 20 January 2019
Temperature: 8.0°C (46°F)
Dewpoint: 6.0°C (43°F) [RH = 87%]
Pressure (altimeter): 29.94 inches Hg (1014.0 mb)
Winds: from the NE (40 degrees) at 3 MPH (3 knots; 1.5 m/s)
Visibility: 6 or more miles (10+ km)
Ceiling: at least 12,000 feet AGL
Clouds: scattered clouds at 2000 feet AGL
scattered clouds at 2600 feet AGL
Weather: no significant weather observed at this time

METAR text: DAOO 202030Z 34004KT 8000 -RA BKN020 07/06 Q1013
Conditions at: DAOO (ORAN/ES SENIA , DZ) observed 2030 UTC 20 January 2019
Temperature: 7.0°C (45°F)
Dewpoint: 6.0°C (43°F) [RH = 93%]
Pressure (altimeter): 29.91 inches Hg (1013.0 mb)
Winds: from the NNW (340 degrees) at 5 MPH (4 knots; 2.1 m/s)
Visibility: 5 miles ( 8 km)
Ceiling: 2000 feet AGL
Clouds: broken clouds at 2000 feet AGL
Weather: -RA  (light rain)

METAR text: DAOO 202000Z 28006KT 8000 -RA BKN020 08/07 Q1013
Conditions at: DAOO (ORAN/ES SENIA , DZ) observed 2000 UTC 20 January 2019
Temperature: 8.0°C (46°F)
Dewpoint: 7.0°C (45°F) [RH = 93%]
Pressure (altimeter): 29.91 inches Hg (1013.0 mb)
Winds: from the W (280 degrees) at 7 MPH (6 knots; 3.1 m/s)
Visibility: 5 miles ( 8 km)
Ceiling: 2000 feet AGL
Clouds: broken clouds at 2000 feet AGL
Weather: -RA  (light rain)

METAR text: DAOO 201930Z 33018KT 8000 -RA BKN020 08/07 Q1013
Conditions at: DAOO (ORAN/ES SENIA , DZ) observed 1930 UTC 20 January 2019
Temperature: 8.0°C (46°F)
Dewpoint: 7.0°C (45°F) [RH = 93%]
Pressure (altimeter): 29.91 inches Hg (1013.0 mb)
Winds: from the NNW (330 degrees) at 21 MPH (18 knots; 9.3 m/s)
Visibility: 5 miles ( 8 km)
Ceiling: 2000 feet AGL
Clouds: broken clouds at 2000 feet AGL
Weather: -RA  (light rain)

METAR text: DAOO 201900Z 28010KT 8000 -RA BKN020 09/08 Q1012
Conditions at: DAOO (ORAN/ES SENIA , DZ) observed 1900 UTC 20 January 2019
Temperature: 9.0°C (48°F)
Dewpoint: 8.0°C (46°F) [RH = 93%]
Pressure (altimeter): 29.88 inches Hg (1012.0 mb)
Winds: from the W (280 degrees) at 12 MPH (10 knots; 5.1 m/s)
Visibility: 5 miles ( 8 km)
Ceiling: 2000 feet AGL
Clouds: broken clouds at 2000 feet AGL
Weather: -RA  (light rain)

METAR text: DAOO 201830Z 26014KT 8000 -RA BKN020 12/09 Q1011
Conditions at: DAOO (ORAN/ES SENIA , DZ) observed 1830 UTC 20 January 2019
Temperature: 12.0°C (54°F)
Dewpoint: 9.0°C (48°F) [RH = 82%]
Pressure (altimeter): 29.85 inches Hg (1011.0 mb)
Winds: from the W (260 degrees) at 16 MPH (14 knots; 7.2 m/s)
Visibility: 5 miles ( 8 km)
Ceiling: 2000 feet AGL
Clouds: broken clouds at 2000 feet AGL
Weather: -RA  (light rain)

METAR text: DAOO 201800Z 26014KT 8000 -RA BKN020 12/09 Q1011
Conditions at: DAOO (ORAN/ES SENIA , DZ) observed 1800 UTC 20 January 2019
Temperature: 12.0°C (54°F)
Dewpoint: 9.0°C (48°F) [RH = 82%]
Pressure (altimeter): 29.85 inches Hg (1011.0 mb)
Winds: from the W (260 degrees) at 16 MPH (14 knots; 7.2 m/s)
Visibility: 5 miles ( 8 km)
Ceiling: 2000 feet AGL
Clouds: broken clouds at 2000 feet AGL
Weather: -RA  (light rain)

METAR text: DAOO 201730Z 27016KT 240V300 8000 -RA BKN020 FEW020TCU 13/10 Q1011
Conditions at: DAOO (ORAN/ES SENIA , DZ) observed 1730 UTC 20 January 2019
Temperature: 13.0°C (55°F)
Dewpoint: 10.0°C (50°F) [RH = 82%]
Pressure (altimeter): 29.85 inches Hg (1011.0 mb)
Winds: from the W (270 degrees) at 18 MPH (16 knots; 8.2 m/s)
Visibility: 5 miles ( 8 km)
Ceiling: 2000 feet AGL
Clouds: broken clouds at 2000 feet AGL
few clouds at 2000 feet AGL
Weather: -RA  (light rain)

METAR text: DAOO 201700Z 27012KT 240V300 8000 -RA BKN020 14/11 Q1010
Conditions at: DAOO (ORAN/ES SENIA , DZ) observed 1700 UTC 20 January 2019
Temperature: 14.0°C (57°F)
Dewpoint: 11.0°C (52°F) [RH = 82%]
Pressure (altimeter): 29.82 inches Hg (1010.0 mb)
Winds: from the W (270 degrees) at 14 MPH (12 knots; 6.2 m/s)
Visibility: 5 miles ( 8 km)
Ceiling: 2000 feet AGL
Clouds: broken clouds at 2000 feet AGL
Weather: -RA  (light rain)

METAR text: DAOO 201630Z 26013KT 9999 SCT013 FEW020TCU SCT030 13/10 Q1010
Conditions at: DAOO (ORAN/ES SENIA , DZ) observed 1630 UTC 20 January 2019
Temperature: 13.0°C (55°F)
Dewpoint: 10.0°C (50°F) [RH = 82%]
Pressure (altimeter): 29.82 inches Hg (1010.0 mb)
Winds: from the W (260 degrees) at 15 MPH (13 knots; 6.7 m/s)
Visibility: 6 or more miles (10+ km)
Ceiling: at least 12,000 feet AGL
Clouds: scattered clouds at 1300 feet AGL
few clouds at 2000 feet AGL
scattered clouds at 3000 feet AGL
Weather: no significant weather observed at this time

METAR text: DAOO 201600Z 26012KT 9999 -RA SCT013 FEW020TCU SCT030 14/12 Q1010
Conditions at: DAOO (ORAN/ES SENIA , DZ) observed 1600 UTC 20 January 2019
Temperature: 14.0°C (57°F)
Dewpoint: 12.0°C (54°F) [RH = 88%]
Pressure (altimeter): 29.82 inches Hg (1010.0 mb)
Winds: from the W (260 degrees) at 14 MPH (12 knots; 6.2 m/s)
Visibility: 6 or more miles (10+ km)
Ceiling: at least 12,000 feet AGL
Clouds: scattered clouds at 1300 feet AGL
few clouds at 2000 feet AGL
scattered clouds at 3000 feet AGL
Weather: -RA  (light rain)

METAR text: DAOO 201530Z 26016G28KT 9999 -RA SCT013 FEW020TCU FEW023CB BKN030 14/11 Q1010
Conditions at: DAOO (ORAN/ES SENIA , DZ) observed 1530 UTC 20 January 2019
Temperature: 14.0°C (57°F)
Dewpoint: 11.0°C (52°F) [RH = 82%]
Pressure (altimeter): 29.82 inches Hg (1010.0 mb)
Winds: from the W (260 degrees) at 18 MPH (16 knots; 8.2 m/s)
gusting to 32 MPH (28 knots; 14.4 m/s)
Visibility: 6 or more miles (10+ km)
Ceiling: 3000 feet AGL
Clouds: scattered clouds at 1300 feet AGL
few clouds at 2000 feet AGL
few clouds at 2300 feet AGL
broken clouds at 3000 feet AGL
Weather: -RA  (light rain)

METAR text: DAOO 201500Z 26016KT 9999 SCT013 FEW020TCU FEW023CB BKN030 15/12 Q1009
Conditions at: DAOO (ORAN/ES SENIA , DZ) observed 1500 UTC 20 January 2019
Temperature: 15.0°C (59°F)
Dewpoint: 12.0°C (54°F) [RH = 82%]
Pressure (altimeter): 29.79 inches Hg (1009.0 mb)
Winds: from the W (260 degrees) at 18 MPH (16 knots; 8.2 m/s)
Visibility: 6 or more miles (10+ km)
Ceiling: 3000 feet AGL
Clouds: scattered clouds at 1300 feet AGL
few clouds at 2000 feet AGL
few clouds at 2300 feet AGL
broken clouds at 3000 feet AGL
Weather: no significant weather observed at this time

METAR text: DAOO 201430Z 25012KT 9999 SCT013 FEW020TCU FEW023CB 11/09 Q1009
Conditions at: DAOO (ORAN/ES SENIA , DZ) observed 1430 UTC 20 January 2019
Temperature: 11.0°C (52°F)
Dewpoint: 9.0°C (48°F) [RH = 87%]
Pressure (altimeter): 29.79 inches Hg (1009.0 mb)
Winds: from the WSW (250 degrees) at 14 MPH (12 knots; 6.2 m/s)
Visibility: 6 or more miles (10+ km)
Ceiling: at least 12,000 feet AGL
Clouds: scattered clouds at 1300 feet AGL
few clouds at 2000 feet AGL
few clouds at 2300 feet AGL
Weather: no significant weather observed at this time

METAR text: DAOO 201400Z 25014KT 7000 -RA SCT013 FEW020TCU FEW023CB 14/12 Q1009
Conditions at: DAOO (ORAN/ES SENIA , DZ) observed 1400 UTC 20 January 2019
Temperature: 14.0°C (57°F)
Dewpoint: 12.0°C (54°F) [RH = 88%]
Pressure (altimeter): 29.79 inches Hg (1009.0 mb)
Winds: from the WSW (250 degrees) at 16 MPH (14 knots; 7.2 m/s)
Visibility: 4 miles ( 7 km)
Ceiling: at least 12,000 feet AGL
Clouds: scattered clouds at 1300 feet AGL
few clouds at 2000 feet AGL
few clouds at 2300 feet AGL
Weather: -RA  (light rain)

METAR text: DAOO 201330Z 24019KT 9999 -RA SCT013 FEW020TCU FEW023CB 15/12 Q1009
Conditions at: DAOO (ORAN/ES SENIA , DZ) observed 1330 UTC 20 January 2019
Temperature: 15.0°C (59°F)
Dewpoint: 12.0°C (54°F) [RH = 82%]
Pressure (altimeter): 29.79 inches Hg (1009.0 mb)
Winds: from the WSW (240 degrees) at 22 MPH (19 knots; 9.8 m/s)
Visibility: 6 or more miles (10+ km)
Ceiling: at least 12,000 feet AGL
Clouds: scattered clouds at 1300 feet AGL
few clouds at 2000 feet AGL
few clouds at 2300 feet AGL
Weather: -RA  (light rain)

METAR text: DAOO 201300Z 25018KT 9999 -SHRA FEW020TCU SCT020 16/12 Q1010
Conditions at: DAOO (ORAN/ES SENIA , DZ) observed 1300 UTC 20 January 2019
Temperature: 16.0°C (61°F)
Dewpoint: 12.0°C (54°F) [RH = 77%]
Pressure (altimeter): 29.82 inches Hg (1010.0 mb)
Winds: from the WSW (250 degrees) at 21 MPH (18 knots; 9.3 m/s)
Visibility: 6 or more miles (10+ km)
Ceiling: at least 12,000 feet AGL
Clouds: few clouds at 2000 feet AGL
scattered clouds at 2000 feet AGL
Weather: -SHRA  (light rain showers)

METAR text: DAOO 201230Z 25016KT 9999 -SHRA FEW020TCU BKN020 15/12 Q1010
Conditions at: DAOO (ORAN/ES SENIA , DZ) observed 1230 UTC 20 January 2019
Temperature: 15.0°C (59°F)
Dewpoint: 12.0°C (54°F) [RH = 82%]
Pressure (altimeter): 29.82 inches Hg (1010.0 mb)
Winds: from the WSW (250 degrees) at 18 MPH (16 knots; 8.2 m/s)
Visibility: 6 or more miles (10+ km)
Ceiling: 2000 feet AGL
Clouds: few clouds at 2000 feet AGL
broken clouds at 2000 feet AGL
Weather: -SHRA  (light rain showers)

METAR text: DAOO 201200Z 26014KT 9999 -RA BKN020 15/12 Q1011
Conditions at: DAOO (ORAN/ES SENIA , DZ) observed 1200 UTC 20 January 2019
Temperature: 15.0°C (59°F)
Dewpoint: 12.0°C (54°F) [RH = 82%]
Pressure (altimeter): 29.85 inches Hg (1011.0 mb)
Winds: from the W (260 degrees) at 16 MPH (14 knots; 7.2 m/s)
Visibility: 6 or more miles (10+ km)
Ceiling: 2000 feet AGL
Clouds: broken clouds at 2000 feet AGL
Weather: -RA  (light rain)

METAR text: DAOO 201130Z 25020KT 9999 -RA BKN020 16/11 Q1011
Conditions at: DAOO (ORAN/ES SENIA , DZ) observed 1130 UTC 20 January 2019
Temperature: 16.0°C (61°F)
Dewpoint: 11.0°C (52°F) [RH = 72%]
Pressure (altimeter): 29.85 inches Hg (1011.0 mb)
Winds: from the WSW (250 degrees) at 23 MPH (20 knots; 10.3 m/s)
Visibility: 6 or more miles (10+ km)
Ceiling: 2000 feet AGL
Clouds: broken clouds at 2000 feet AGL
Weather: -RA  (light rain)

METAR text: DAOO 201100Z 24020KT 9999 BKN020 16/11 Q1011
Conditions at: DAOO (ORAN/ES SENIA , DZ) observed 1100 UTC 20 January 2019
Temperature: 16.0°C (61°F)
Dewpoint: 11.0°C (52°F) [RH = 72%]
Pressure (altimeter): 29.85 inches Hg (1011.0 mb)
Winds: from the WSW (240 degrees) at 23 MPH (20 knots; 10.3 m/s)
Visibility: 6 or more miles (10+ km)
Ceiling: 2000 feet AGL
Clouds: broken clouds at 2000 feet AGL
Weather: no significant weather observed at this time

METAR text: DAOO 201030Z 25014KT 210V270 9999 BKN020 15/11 Q1011
Conditions at: DAOO (ORAN/ES SENIA , DZ) observed 1030 UTC 20 January 2019
Temperature: 15.0°C (59°F)
Dewpoint: 11.0°C (52°F) [RH = 77%]
Pressure (altimeter): 29.85 inches Hg (1011.0 mb)
Winds: from the WSW (250 degrees) at 16 MPH (14 knots; 7.2 m/s)
Visibility: 6 or more miles (10+ km)
Ceiling: 2000 feet AGL
Clouds: broken clouds at 2000 feet AGL
Weather: no significant weather observed at this time

METAR text: DAOO 201000Z 23016KT 9999 SCT020 14/12 Q1011
Conditions at: DAOO (ORAN/ES SENIA , DZ) observed 1000 UTC 20 January 2019
Temperature: 14.0°C (57°F)
Dewpoint: 12.0°C (54°F) [RH = 88%]
Pressure (altimeter): 29.85 inches Hg (1011.0 mb)
Winds: from the SW (230 degrees) at 18 MPH (16 knots; 8.2 m/s)
Visibility: 6 or more miles (10+ km)
Ceiling: at least 12,000 feet AGL
Clouds: scattered clouds at 2000 feet AGL
Weather: no significant weather observed at this time

METAR text: DAOO 200930Z 24016KT 9999 SCT020 SCT026 13/10 Q1011
Conditions at: DAOO (ORAN/ES SENIA , DZ) observed 0930 UTC 20 January 2019
Temperature: 13.0°C (55°F)
Dewpoint: 10.0°C (50°F) [RH = 82%]
Pressure (altimeter): 29.85 inches Hg (1011.0 mb)
Winds: from the WSW (240 degrees) at 18 MPH (16 knots; 8.2 m/s)
Visibility: 6 or more miles (10+ km)
Ceiling: at least 12,000 feet AGL
Clouds: scattered clouds at 2000 feet AGL
scattered clouds at 2600 feet AGL
Weather: no significant weather observed at this time

METAR text: DAOO 200900Z 24016KT 9999 SCT020 SCT026 13/10 Q1011
Conditions at: DAOO (ORAN/ES SENIA , DZ) observed 0900 UTC 20 January 2019
Temperature: 13.0°C (55°F)
Dewpoint: 10.0°C (50°F) [RH = 82%]
Pressure (altimeter): 29.85 inches Hg (1011.0 mb)
Winds: from the WSW (240 degrees) at 18 MPH (16 knots; 8.2 m/s)
Visibility: 6 or more miles (10+ km)
Ceiling: at least 12,000 feet AGL
Clouds: scattered clouds at 2000 feet AGL
scattered clouds at 2600 feet AGL
Weather: no significant weather observed at this time

METAR text: DAOO 200830Z 25014KT 9999 FEW020 BKN026 12/10 Q1011
Conditions at: DAOO (ORAN/ES SENIA , DZ) observed 0830 UTC 20 January 2019
Temperature: 12.0°C (54°F)
Dewpoint: 10.0°C (50°F) [RH = 88%]
Pressure (altimeter): 29.85 inches Hg (1011.0 mb)
Winds: from the WSW (250 degrees) at 16 MPH (14 knots; 7.2 m/s)
Visibility: 6 or more miles (10+ km)
Ceiling: 2600 feet AGL
Clouds: few clouds at 2000 feet AGL
broken clouds at 2600 feet AGL
Weather: no significant weather observed at this time

METAR text: DAOO 200800Z 24014KT 9999 FEW020 BKN026 12/10 Q1011
Conditions at: DAOO (ORAN/ES SENIA , DZ) observed 0800 UTC 20 January 2019
Temperature: 12.0°C (54°F)
Dewpoint: 10.0°C (50°F) [RH = 88%]
Pressure (altimeter): 29.85 inches Hg (1011.0 mb)
Winds: from the WSW (240 degrees) at 16 MPH (14 knots; 7.2 m/s)
Visibility: 6 or more miles (10+ km)
Ceiling: 2600 feet AGL
Clouds: few clouds at 2000 feet AGL
broken clouds at 2600 feet AGL
Weather: no significant weather observed at this time

METAR text: DAOO 200730Z 24008KT 9999 FEW020 SCT026 10/09 Q1010
Conditions at: DAOO (ORAN/ES SENIA , DZ) observed 0730 UTC 20 January 2019
Temperature: 10.0°C (50°F)
Dewpoint: 9.0°C (48°F) [RH = 93%]
Pressure (altimeter): 29.82 inches Hg (1010.0 mb)
Winds: from the WSW (240 degrees) at 9 MPH (8 knots; 4.1 m/s)
Visibility: 6 or more miles (10+ km)
Ceiling: at least 12,000 feet AGL
Clouds: few clouds at 2000 feet AGL
scattered clouds at 2600 feet AGL
Weather: no significant weather observed at this time

METAR text: DAOO 200700Z 22013KT 9999 FEW020 BKN026 11/10 Q1010
Conditions at: DAOO (ORAN/ES SENIA , DZ) observed 0700 UTC 20 January 2019
Temperature: 11.0°C (52°F)
Dewpoint: 10.0°C (50°F) [RH = 94%]
Pressure (altimeter): 29.82 inches Hg (1010.0 mb)
Winds: from the SW (220 degrees) at 15 MPH (13 knots; 6.7 m/s)
Visibility: 6 or more miles (10+ km)
Ceiling: 2600 feet AGL
Clouds: few clouds at 2000 feet AGL
broken clouds at 2600 feet AGL
Weather: no significant weather observed at this time

METAR text: DAOO 200630Z 21010KT 9999 FEW023 BKN026 10/09 Q1011
Conditions at: DAOO (ORAN/ES SENIA , DZ) observed 0630 UTC 20 January 2019
Temperature: 10.0°C (50°F)
Dewpoint: 9.0°C (48°F) [RH = 93%]
Pressure (altimeter): 29.85 inches Hg (1011.0 mb)
Winds: from the SSW (210 degrees) at 12 MPH (10 knots; 5.1 m/s)
Visibility: 6 or more miles (10+ km)
Ceiling: 2600 feet AGL
Clouds: few clouds at 2300 feet AGL
broken clouds at 2600 feet AGL
Weather: no significant weather observed at this time

METAR text: DAOO 200600Z 22008KT 9999 FEW023 BKN026 10/09 Q1011
Conditions at: DAOO (ORAN/ES SENIA , DZ) observed 0600 UTC 20 January 2019
Temperature: 10.0°C (50°F)
Dewpoint: 9.0°C (48°F) [RH = 93%]
Pressure (altimeter): 29.85 inches Hg (1011.0 mb)
Winds: from the SW (220 degrees) at 9 MPH (8 knots; 4.1 m/s)
Visibility: 6 or more miles (10+ km)
Ceiling: 2600 feet AGL
Clouds: few clouds at 2300 feet AGL
broken clouds at 2600 feet AGL
Weather: no significant weather observed at this time

METAR text: DAOO 200530Z 22007KT 9999 -RA FEW023 BKN026 09/09 Q1011
Conditions at: DAOO (ORAN/ES SENIA , DZ) observed 0530 UTC 20 January 2019
Temperature: 9.0°C (48°F)
Dewpoint: 9.0°C (48°F) [RH = 100%]
Pressure (altimeter): 29.85 inches Hg (1011.0 mb)
Winds: from the SW (220 degrees) at 8 MPH (7 knots; 3.6 m/s)
Visibility: 6 or more miles (10+ km)
Ceiling: 2600 feet AGL
Clouds: few clouds at 2300 feet AGL
broken clouds at 2600 feet AGL
Weather: -RA  (light rain)

METAR text: DAOO 200500Z 23006KT 9999 -RA FEW023 BKN026 10/09 Q1011
Conditions at: DAOO (ORAN/ES SENIA , DZ) observed 0500 UTC 20 January 2019
Temperature: 10.0°C (50°F)
Dewpoint: 9.0°C (48°F) [RH = 93%]
Pressure (altimeter): 29.85 inches Hg (1011.0 mb)
Winds: from the SW (230 degrees) at 7 MPH (6 knots; 3.1 m/s)
Visibility: 6 or more miles (10+ km)
Ceiling: 2600 feet AGL
Clouds: few clouds at 2300 feet AGL
broken clouds at 2600 feet AGL
Weather: -RA  (light rain)

METAR text: DAOO 200430Z 24005KT 9999 -RA FEW023 BKN026 10/09 Q1011
Conditions at: DAOO (ORAN/ES SENIA , DZ) observed 0430 UTC 20 January 2019
Temperature: 10.0°C (50°F)
Dewpoint: 9.0°C (48°F) [RH = 93%]
Pressure (altimeter): 29.85 inches Hg (1011.0 mb)
Winds: from the WSW (240 degrees) at 6 MPH (5 knots; 2.6 m/s)
Visibility: 6 or more miles (10+ km)
Ceiling: 2600 feet AGL
Clouds: few clouds at 2300 feet AGL
broken clouds at 2600 feet AGL
Weather: -RA  (light rain)

METAR text: DAOO 200400Z 24006KT 9999 -RA FEW023 BKN026 10/09 Q1012
Conditions at: DAOO (ORAN/ES SENIA , DZ) observed 0400 UTC 20 January 2019
Temperature: 10.0°C (50°F)
Dewpoint: 9.0°C (48°F) [RH = 93%]
Pressure (altimeter): 29.88 inches Hg (1012.0 mb)
Winds: from the WSW (240 degrees) at 7 MPH (6 knots; 3.1 m/s)
Visibility: 6 or more miles (10+ km)
Ceiling: 2600 feet AGL
Clouds: few clouds at 2300 feet AGL
broken clouds at 2600 feet AGL
Weather: -RA  (light rain)

METAR text: DAOO 200330Z 22008KT 9999 -RA FEW023 BKN026 10/09 Q1012
Conditions at: DAOO (ORAN/ES SENIA , DZ) observed 0330 UTC 20 January 2019
Temperature: 10.0°C (50°F)
Dewpoint: 9.0°C (48°F) [RH = 93%]
Pressure (altimeter): 29.88 inches Hg (1012.0 mb)
Winds: from the SW (220 degrees) at 9 MPH (8 knots; 4.1 m/s)
Visibility: 6 or more miles (10+ km)
Ceiling: 2600 feet AGL
Clouds: few clouds at 2300 feet AGL
broken clouds at 2600 feet AGL
Weather: -RA  (light rain)

METAR text: DAOO 200300Z 22010KT 9999 FEW023 BKN026 11/10 Q1013
Conditions at: DAOO (ORAN/ES SENIA , DZ) observed 0300 UTC 20 January 2019
Temperature: 11.0°C (52°F)
Dewpoint: 10.0°C (50°F) [RH = 94%]
Pressure (altimeter): 29.91 inches Hg (1013.0 mb)
Winds: from the SW (220 degrees) at 12 MPH (10 knots; 5.1 m/s)
Visibility: 6 or more miles (10+ km)
Ceiling: 2600 feet AGL
Clouds: few clouds at 2300 feet AGL
broken clouds at 2600 feet AGL
Weather: no significant weather observed at this time

METAR text: DAOO 200230Z 21010KT 9999 FEW023 BKN026 11/10 Q1013
Conditions at: DAOO (ORAN/ES SENIA , DZ) observed 0230 UTC 20 January 2019
Temperature: 11.0°C (52°F)
Dewpoint: 10.0°C (50°F) [RH = 94%]
Pressure (altimeter): 29.91 inches Hg (1013.0 mb)
Winds: from the SSW (210 degrees) at 12 MPH (10 knots; 5.1 m/s)
Visibility: 6 or more miles (10+ km)
Ceiling: 2600 feet AGL
Clouds: few clouds at 2300 feet AGL
broken clouds at 2600 feet AGL
Weather: no significant weather observed at this time

METAR text: DAOO 200200Z 22007KT 9999 FEW023 BKN026 11/10 Q1013
Conditions at: DAOO (ORAN/ES SENIA , DZ) observed 0200 UTC 20 January 2019
Temperature: 11.0°C (52°F)
Dewpoint: 10.0°C (50°F) [RH = 94%]
Pressure (altimeter): 29.91 inches Hg (1013.0 mb)
Winds: from the SW (220 degrees) at 8 MPH (7 knots; 3.6 m/s)
Visibility: 6 or more miles (10+ km)
Ceiling: 2600 feet AGL
Clouds: few clouds at 2300 feet AGL
broken clouds at 2600 feet AGL
Weather: no significant weather observed at this time

METAR text: DAOO 200130Z 23011KT 9999 FEW023 BKN026 11/10 Q1014
Conditions at: DAOO (ORAN/ES SENIA , DZ) observed 0130 UTC 20 January 2019
Temperature: 11.0°C (52°F)
Dewpoint: 10.0°C (50°F) [RH = 94%]
Pressure (altimeter): 29.94 inches Hg (1014.0 mb)
Winds: from the SW (230 degrees) at 13 MPH (11 knots; 5.7 m/s)
Visibility: 6 or more miles (10+ km)
Ceiling: 2600 feet AGL
Clouds: few clouds at 2300 feet AGL
broken clouds at 2600 feet AGL
Weather: no significant weather observed at this time

METAR text: DAOO 200100Z 23011KT 9999 FEW023 BKN026 11/10 Q1014
Conditions at: DAOO (ORAN/ES SENIA , DZ) observed 0100 UTC 20 January 2019
Temperature: 11.0°C (52°F)
Dewpoint: 10.0°C (50°F) [RH = 94%]
Pressure (altimeter): 29.94 inches Hg (1014.0 mb)
Winds: from the SW (230 degrees) at 13 MPH (11 knots; 5.7 m/s)
Visibility: 6 or more miles (10+ km)
Ceiling: 2600 feet AGL
Clouds: few clouds at 2300 feet AGL
broken clouds at 2600 feet AGL
Weather: no significant weather observed at this time

METAR text: DAOO 200030Z 23012KT 9999 FEW023 BKN026 11/10 Q1014
Conditions at: DAOO (ORAN/ES SENIA , DZ) observed 0030 UTC 20 January 2019
Temperature: 11.0°C (52°F)
Dewpoint: 10.0°C (50°F) [RH = 94%]
Pressure (altimeter): 29.94 inches Hg (1014.0 mb)
Winds: from the SW (230 degrees) at 14 MPH (12 knots; 6.2 m/s)
Visibility: 6 or more miles (10+ km)
Ceiling: 2600 feet AGL
Clouds: few clouds at 2300 feet AGL
broken clouds at 2600 feet AGL
Weather: no significant weather observed at this time

METAR text: DAOO 200000Z 22012KT 9999 FEW023 BKN026 11/10 Q1014
Conditions at: DAOO (ORAN/ES SENIA , DZ) observed 0000 UTC 20 January 2019
Temperature: 11.0°C (52°F)
Dewpoint: 10.0°C (50°F) [RH = 94%]
Pressure (altimeter): 29.94 inches Hg (1014.0 mb)
Winds: from the SW (220 degrees) at 14 MPH (12 knots; 6.2 m/s)
Visibility: 6 or more miles (10+ km)
Ceiling: 2600 feet AGL
Clouds: few clouds at 2300 feet AGL
broken clouds at 2600 feet AGL
Weather: no significant weather observed at this time

METAR text: DAOO 192330Z 23013KT 9999 FEW023 BKN026 12/11 Q1015
Conditions at: DAOO (ORAN/ES SENIA , DZ) observed 2330 UTC 19 January 2019
Temperature: 12.0°C (54°F)
Dewpoint: 11.0°C (52°F) [RH = 94%]
Pressure (altimeter): 29.97 inches Hg (1015.0 mb)
Winds: from the SW (230 degrees) at 15 MPH (13 knots; 6.7 m/s)
Visibility: 6 or more miles (10+ km)
Ceiling: 2600 feet AGL
Clouds: few clouds at 2300 feet AGL
broken clouds at 2600 feet AGL
Weather: no significant weather observed at this time

METAR text: DAOO 192300Z 22018KT 9999 FEW023 BKN026 12/11 Q1015
Conditions at: DAOO (ORAN/ES SENIA , DZ) observed 2300 UTC 19 January 2019
Temperature: 12.0°C (54°F)
Dewpoint: 11.0°C (52°F) [RH = 94%]
Pressure (altimeter): 29.97 inches Hg (1015.0 mb)
Winds: from the SW (220 degrees) at 21 MPH (18 knots; 9.3 m/s)
Visibility: 6 or more miles (10+ km)
Ceiling: 2600 feet AGL
Clouds: few clouds at 2300 feet AGL
broken clouds at 2600 feet AGL
Weather: no significant weather observed at this time

METAR text: DAOO 192230Z 21011KT 9999 FEW023 BKN026 11/10 Q1015
Conditions at: DAOO (ORAN/ES SENIA , DZ) observed 2230 UTC 19 January 2019
Temperature: 11.0°C (52°F)
Dewpoint: 10.0°C (50°F) [RH = 94%]
Pressure (altimeter): 29.97 inches Hg (1015.0 mb)
Winds: from the SSW (210 degrees) at 13 MPH (11 knots; 5.7 m/s)
Visibility: 6 or more miles (10+ km)
Ceiling: 2600 feet AGL
Clouds: few clouds at 2300 feet AGL
broken clouds at 2600 feet AGL
Weather: no significant weather observed at this time

METAR text: DAOO 192200Z 20010KT 9999 FEW023 BKN026 11/10 Q1015
Conditions at: DAOO (ORAN/ES SENIA , DZ) observed 2200 UTC 19 January 2019
Temperature: 11.0°C (52°F)
Dewpoint: 10.0°C (50°F) [RH = 94%]
Pressure (altimeter): 29.97 inches Hg (1015.0 mb)
Winds: from the SSW (200 degrees) at 12 MPH (10 knots; 5.1 m/s)
Visibility: 6 or more miles (10+ km)
Ceiling: 2600 feet AGL
Clouds: few clouds at 2300 feet AGL
broken clouds at 2600 feet AGL
Weather: no significant weather observed at this time

METAR text: DAOO 192130Z 21010KT 9999 FEW023 BKN026 11/10 Q1015
Conditions at: DAOO (ORAN/ES SENIA , DZ) observed 2130 UTC 19 January 2019
Temperature: 11.0°C (52°F)
Dewpoint: 10.0°C (50°F) [RH = 94%]
Pressure (altimeter): 29.97 inches Hg (1015.0 mb)
Winds: from the SSW (210 degrees) at 12 MPH (10 knots; 5.1 m/s)
Visibility: 6 or more miles (10+ km)
Ceiling: 2600 feet AGL
Clouds: few clouds at 2300 feet AGL
broken clouds at 2600 feet AGL
Weather: no significant weather observed at this time

METAR text: DAOO 192100Z 22010KT 9999 FEW023 BKN026 11/10 Q1015
Conditions at: DAOO (ORAN/ES SENIA , DZ) observed 2100 UTC 19 January 2019
Temperature: 11.0°C (52°F)
Dewpoint: 10.0°C (50°F) [RH = 94%]
Pressure (altimeter): 29.97 inches Hg (1015.0 mb)
Winds: from the SW (220 degrees) at 12 MPH (10 knots; 5.1 m/s)
Visibility: 6 or more miles (10+ km)
Ceiling: 2600 feet AGL
Clouds: few clouds at 2300 feet AGL
broken clouds at 2600 feet AGL
Weather: no significant weather observed at this time

METAR text: DAOO 192030Z 22009KT 9999 FEW023 BKN026 10/09 Q1016
Conditions at: DAOO (ORAN/ES SENIA , DZ) observed 2030 UTC 19 January 2019
Temperature: 10.0°C (50°F)
Dewpoint: 9.0°C (48°F) [RH = 93%]
Pressure (altimeter): 30.00 inches Hg (1016.0 mb)
Winds: from the SW (220 degrees) at 10 MPH (9 knots; 4.6 m/s)
Visibility: 6 or more miles (10+ km)
Ceiling: 2600 feet AGL
Clouds: few clouds at 2300 feet AGL
broken clouds at 2600 feet AGL
Weather: no significant weather observed at this time

METAR text: DAOO 192000Z 22008KT 9999 FEW023 BKN026 10/09 Q1016
Conditions at: DAOO (ORAN/ES SENIA , DZ) observed 2000 UTC 19 January 2019
Temperature: 10.0°C (50°F)
Dewpoint: 9.0°C (48°F) [RH = 93%]
Pressure (altimeter): 30.00 inches Hg (1016.0 mb)
Winds: from the SW (220 degrees) at 9 MPH (8 knots; 4.1 m/s)
Visibility: 6 or more miles (10+ km)
Ceiling: 2600 feet AGL
Clouds: few clouds at 2300 feet AGL
broken clouds at 2600 feet AGL
Weather: no significant weather observed at this time

METAR text: DAOO 191930Z 22009KT 9999 FEW023 BKN026 09/08 Q1016
Conditions at: DAOO (ORAN/ES SENIA , DZ) observed 1930 UTC 19 January 2019
Temperature: 9.0°C (48°F)
Dewpoint: 8.0°C (46°F) [RH = 93%]
Pressure (altimeter): 30.00 inches Hg (1016.0 mb)
Winds: from the SW (220 degrees) at 10 MPH (9 knots; 4.6 m/s)
Visibility: 6 or more miles (10+ km)
Ceiling: 2600 feet AGL
Clouds: few clouds at 2300 feet AGL
broken clouds at 2600 feet AGL
Weather: no significant weather observed at this time

METAR text: DAOO 191900Z 22004KT 9999 FEW023 BKN026 08/07 Q1016
Conditions at: DAOO (ORAN/ES SENIA , DZ) observed 1900 UTC 19 January 2019
Temperature: 8.0°C (46°F)
Dewpoint: 7.0°C (45°F) [RH = 93%]
Pressure (altimeter): 30.00 inches Hg (1016.0 mb)
Winds: from the SW (220 degrees) at 5 MPH (4 knots; 2.1 m/s)
Visibility: 6 or more miles (10+ km)
Ceiling: 2600 feet AGL
Clouds: few clouds at 2300 feet AGL
broken clouds at 2600 feet AGL
Weather: no significant weather observed at this time

METAR text: DAOO 191830Z 23002KT 9999 FEW023 BKN026 09/08 Q1016
Conditions at: DAOO (ORAN/ES SENIA , DZ) observed 1830 UTC 19 January 2019
Temperature: 9.0°C (48°F)
Dewpoint: 8.0°C (46°F) [RH = 93%]
Pressure (altimeter): 30.00 inches Hg (1016.0 mb)
Winds: from the SW (230 degrees) at 2 MPH (2 knots; 1.0 m/s)
Visibility: 6 or more miles (10+ km)
Ceiling: 2600 feet AGL
Clouds: few clouds at 2300 feet AGL
broken clouds at 2600 feet AGL
Weather: no significant weather observed at this time

METAR text: DAOO 191800Z 22005KT 9999 FEW023 BKN026 10/09 Q1016
Conditions at: DAOO (ORAN/ES SENIA , DZ) observed 1800 UTC 19 January 2019
Temperature: 10.0°C (50°F)
Dewpoint: 9.0°C (48°F) [RH = 93%]
Pressure (altimeter): 30.00 inches Hg (1016.0 mb)
Winds: from the SW (220 degrees) at 6 MPH (5 knots; 2.6 m/s)
Visibility: 6 or more miles (10+ km)
Ceiling: 2600 feet AGL
Clouds: few clouds at 2300 feet AGL
broken clouds at 2600 feet AGL
Weather: no significant weather observed at this time

METAR text: DAOO 191730Z 24006KT 9999 FEW023 BKN026 11/10 Q1016
Conditions at: DAOO (ORAN/ES SENIA , DZ) observed 1730 UTC 19 January 2019
Temperature: 11.0°C (52°F)
Dewpoint: 10.0°C (50°F) [RH = 94%]
Pressure (altimeter): 30.00 inches Hg (1016.0 mb)
Winds: from the WSW (240 degrees) at 7 MPH (6 knots; 3.1 m/s)
Visibility: 6 or more miles (10+ km)
Ceiling: 2600 feet AGL
Clouds: few clouds at 2300 feet AGL
broken clouds at 2600 feet AGL
Weather: no significant weather observed at this time

Forecast for: DAOO (ORAN/ES SENIA , DZ)
Text: TAF DAOO 202300Z 2100/2124 26010KT 9999 FEW026 SCT026
Forecast period: 0000 to 1400 UTC 21 January 2019
Forecast type: FROM: standard forecast or significant change
Winds: from the W (260 degrees) at 12 MPH (10 knots; 5.1 m/s)
Visibility: 6 or more miles 10+ km)
Ceiling: at least 12,000 feet AGL
Clouds: few clouds at 2600 feet AGL
scattered clouds at 2600 feet AGL
Weather: no significant weather forecast for this period
Text: TEMPO 2100/2110 6000 RA SCT023 FEW026CB BKN026
Forecast period: 0000 to 1000 UTC 21 January 2019
Forecast type: TEMPORARY: The following changes expected for less than half the time period
Visibility: 4 miles (6 km)
Ceiling: 2600 feet AGL
Clouds: scattered clouds at 2300 feet AGL
few clouds at 2600 feet AGL
broken clouds at 2600 feet AGL
Weather: RA  (moderate rain)
Text: TEMPO 2106/2109 SHRA
Forecast period: 0600 to 0900 UTC 21 January 2019
Forecast type: TEMPORARY: The following changes expected for less than half the time period
Visibility: missing
Ceiling: unknown
Clouds: missing
Weather: SHRA  (rain showers)
Text: BECMG 2114/2116 32010KT 9999 SCT026
Forecast period: 1400 UTC 21 January 2019 to 0000 UTC 22 January 2019
Forecast type: BECOMING: Conditions expected to become as follows by 1600 UTC 21 January 2019
Winds: from the NW (320 degrees) at 12 MPH (10 knots; 5.1 m/s)
Visibility: 6 or more miles 10+ km)
Ceiling: at least 12,000 feet AGL
Clouds: scattered clouds at 2600 feet AGL
Weather: no significant weather forecast for this period